sensor_id;sensor_type;location;lat;lon;timestamp;P1;durP1;ratioP1;P2;durP2;ratioP2
4422;SDS011;2224;49.814;8.650;2022-08-18T00:01:18;9.67;;;8.87;;
4422;SDS011;2224;49.814;8.650;2022-08-18T00:03:46;10.13;;;9.33;;
4422;SDS011;2224;49.814;8.650;2022-08-18T00:06:12;10.07;;;9.07;;
4422;SDS011;2224;49.814;8.650;2022-08-18T00:08:37;9.20;;;8.40;;
4422;SDS011;2224;49.814;8.650;2022-08-18T00:11:02;10.37;;;9.50;;
4422;SDS011;2224;49.814;8.650;2022-08-18T00:13:28;11.50;;;9.07;;
4422;SDS011;2224;49.814;8.650;2022-08-18T00:15:53;9.27;;;8.37;;
4422;SDS011;2224;49.814;8.650;2022-08-18T00:18:18;9.13;;;8.40;;
4422;SDS011;2224;49.814;8.650;2022-08-18T00:20:44;9.50;;;8.60;;
4422;SDS011;2224;49.814;8.650;2022-08-18T00:23:09;9.67;;;8.77;;
4422;SDS011;2224;49.814;8.650;2022-08-18T00:25:34;9.70;;;8.80;;
4422;SDS011;2224;49.814;8.650;2022-08-18T00:28:00;9.00;;;8.20;;
4422;SDS011;2224;49.814;8.650;2022-08-18T00:30:25;9.20;;;8.50;;
4422;SDS011;2224;49.814;8.650;2022-08-18T00:32:55;10.80;;;8.83;;
4422;SDS011;2224;49.814;8.650;2022-08-18T00:35:22;10.40;;;9.40;;
4422;SDS011;2224;49.814;8.650;2022-08-18T00:38:07;8.77;;;7.93;;
4422;SDS011;2224;49.814;8.650;2022-08-18T00:40:43;9.20;;;8.40;;
4422;SDS011;2224;49.814;8.650;2022-08-18T00:43:14;10.37;;;9.40;;
4422;SDS011;2224;49.814;8.650;2022-08-18T00:45:43;10.07;;;9.17;;
4422;SDS011;2224;49.814;8.650;2022-08-18T00:48:09;9.60;;;8.70;;
4422;SDS011;2224;49.814;8.650;2022-08-18T00:50:52;10.30;;;9.23;;
4422;SDS011;2224;49.814;8.650;2022-08-18T00:53:33;9.83;;;8.83;;
4422;SDS011;2224;49.814;8.650;2022-08-18T00:56:04;10.50;;;9.50;;
4422;SDS011;2224;49.814;8.650;2022-08-18T00:58:36;10.27;;;9.27;;
4422;SDS011;2224;49.814;8.650;2022-08-18T01:01:05;9.30;;;8.50;;
4422;SDS011;2224;49.814;8.650;2022-08-18T01:03:33;10.13;;;9.23;;
4422;SDS011;2224;49.814;8.650;2022-08-18T01:06:04;9.30;;;8.40;;
4422;SDS011;2224;49.814;8.650;2022-08-18T01:08:33;10.83;;;9.93;;
4422;SDS011;2224;49.814;8.650;2022-08-18T01:10:58;10.53;;;9.50;;
4422;SDS011;2224;49.814;8.650;2022-08-18T01:13:26;10.20;;;9.17;;
4422;SDS011;2224;49.814;8.650;2022-08-18T01:15:53;10.40;;;9.37;;
4422;SDS011;2224;49.814;8.650;2022-08-18T01:18:19;10.30;;;9.40;;
4422;SDS011;2224;49.814;8.650;2022-08-18T01:21:07;10.10;;;9.17;;
4422;SDS011;2224;49.814;8.650;2022-08-18T01:23:55;9.93;;;8.93;;
4422;SDS011;2224;49.814;8.650;2022-08-18T01:26:21;9.83;;;8.93;;
4422;SDS011;2224;49.814;8.650;2022-08-18T01:28:48;9.60;;;8.80;;
4422;SDS011;2224;49.814;8.650;2022-08-18T01:31:31;8.93;;;8.23;;
4422;SDS011;2224;49.814;8.650;2022-08-18T01:34:01;9.63;;;8.80;;
4422;SDS011;2224;49.814;8.650;2022-08-18T01:36:27;10.83;;;8.30;;
4422;SDS011;2224;49.814;8.650;2022-08-18T01:38:53;9.83;;;8.93;;
4422;SDS011;2224;49.814;8.650;2022-08-18T01:41:19;9.53;;;8.30;;
4422;SDS011;2224;49.814;8.650;2022-08-18T01:43:46;9.53;;;8.60;;
4422;SDS011;2224;49.814;8.650;2022-08-18T01:46:12;8.60;;;7.80;;
4422;SDS011;2224;49.814;8.650;2022-08-18T01:48:38;8.73;;;7.93;;
4422;SDS011;2224;49.814;8.650;2022-08-18T01:51:07;8.77;;;8.00;;
4422;SDS011;2224;49.814;8.650;2022-08-18T01:53:34;9.27;;;8.47;;
4422;SDS011;2224;49.814;8.650;2022-08-18T01:55:59;8.90;;;8.10;;
4422;SDS011;2224;49.814;8.650;2022-08-18T01:58:28;9.07;;;8.20;;
4422;SDS011;2224;49.814;8.650;2022-08-18T02:00:53;9.30;;;8.23;;
4422;SDS011;2224;49.814;8.650;2022-08-18T02:03:22;10.10;;;7.40;;
4422;SDS011;2224;49.814;8.650;2022-08-18T02:05:50;8.80;;;8.00;;
4422;SDS011;2224;49.814;8.650;2022-08-18T02:08:17;8.97;;;8.20;;
4422;SDS011;2224;49.814;8.650;2022-08-18T02:10:42;9.17;;;7.87;;
4422;SDS011;2224;49.814;8.650;2022-08-18T02:13:08;8.77;;;8.07;;
4422;SDS011;2224;49.814;8.650;2022-08-18T02:15:33;8.97;;;8.17;;
4422;SDS011;2224;49.814;8.650;2022-08-18T02:17:59;8.17;;;7.47;;
4422;SDS011;2224;49.814;8.650;2022-08-18T02:20:24;12.13;;;8.00;;
4422;SDS011;2224;49.814;8.650;2022-08-18T02:22:49;8.47;;;7.73;;
4422;SDS011;2224;49.814;8.650;2022-08-18T02:25:16;8.43;;;7.63;;
4422;SDS011;2224;49.814;8.650;2022-08-18T02:27:42;9.23;;;8.43;;
4422;SDS011;2224;49.814;8.650;2022-08-18T02:30:08;8.43;;;7.73;;
4422;SDS011;2224;49.814;8.650;2022-08-18T02:32:35;8.80;;;7.90;;
4422;SDS011;2224;49.814;8.650;2022-08-18T02:35:01;10.53;;;7.47;;
4422;SDS011;2224;49.814;8.650;2022-08-18T02:37:26;8.30;;;7.60;;
4422;SDS011;2224;49.814;8.650;2022-08-18T02:39:52;9.43;;;8.63;;
4422;SDS011;2224;49.814;8.650;2022-08-18T02:42:17;9.00;;;8.10;;
4422;SDS011;2224;49.814;8.650;2022-08-18T02:44:43;7.67;;;6.97;;
4422;SDS011;2224;49.814;8.650;2022-08-18T02:47:08;7.63;;;7.03;;
4422;SDS011;2224;49.814;8.650;2022-08-18T02:49:34;7.90;;;7.07;;
4422;SDS011;2224;49.814;8.650;2022-08-18T02:52:00;7.50;;;6.90;;
4422;SDS011;2224;49.814;8.650;2022-08-18T02:54:26;7.47;;;6.80;;
4422;SDS011;2224;49.814;8.650;2022-08-18T02:56:52;8.60;;;7.80;;
4422;SDS011;2224;49.814;8.650;2022-08-18T02:59:19;7.17;;;6.47;;
4422;SDS011;2224;49.814;8.650;2022-08-18T03:01:52;7.30;;;6.67;;
4422;SDS011;2224;49.814;8.650;2022-08-18T03:04:20;8.30;;;7.03;;
4422;SDS011;2224;49.814;8.650;2022-08-18T03:06:49;8.57;;;7.83;;
4422;SDS011;2224;49.814;8.650;2022-08-18T03:09:15;8.10;;;7.40;;
4422;SDS011;2224;49.814;8.650;2022-08-18T03:11:42;7.90;;;7.20;;
4422;SDS011;2224;49.814;8.650;2022-08-18T03:14:08;7.73;;;7.03;;
4422;SDS011;2224;49.814;8.650;2022-08-18T03:16:33;8.10;;;7.30;;
4422;SDS011;2224;49.814;8.650;2022-08-18T03:18:59;7.80;;;7.00;;
4422;SDS011;2224;49.814;8.650;2022-08-18T03:21:26;7.43;;;6.73;;
4422;SDS011;2224;49.814;8.650;2022-08-18T03:23:53;8.07;;;7.27;;
4422;SDS011;2224;49.814;8.650;2022-08-18T03:26:19;7.70;;;7.00;;
4422;SDS011;2224;49.814;8.650;2022-08-18T03:28:47;7.30;;;6.70;;
4422;SDS011;2224;49.814;8.650;2022-08-18T03:31:14;7.97;;;7.27;;
4422;SDS011;2224;49.814;8.650;2022-08-18T03:33:41;8.60;;;7.80;;
4422;SDS011;2224;49.814;8.650;2022-08-18T03:36:10;8.27;;;7.57;;
4422;SDS011;2224;49.814;8.650;2022-08-18T03:38:37;8.40;;;7.60;;
4422;SDS011;2224;49.814;8.650;2022-08-18T03:41:07;7.43;;;6.73;;
4422;SDS011;2224;49.814;8.650;2022-08-18T03:43:33;8.00;;;7.27;;
4422;SDS011;2224;49.814;8.650;2022-08-18T03:46:00;8.00;;;7.20;;
4422;SDS011;2224;49.814;8.650;2022-08-18T03:48:26;8.40;;;7.60;;
4422;SDS011;2224;49.814;8.650;2022-08-18T03:50:51;7.10;;;6.50;;
4422;SDS011;2224;49.814;8.650;2022-08-18T03:53:17;7.50;;;6.90;;
4422;SDS011;2224;49.814;8.650;2022-08-18T03:55:43;8.20;;;7.47;;
4422;SDS011;2224;49.814;8.650;2022-08-18T03:58:08;8.97;;;6.70;;
4422;SDS011;2224;49.814;8.650;2022-08-18T04:00:37;7.70;;;7.00;;
4422;SDS011;2224;49.814;8.650;2022-08-18T04:03:03;8.90;;;7.13;;
4422;SDS011;2224;49.814;8.650;2022-08-18T04:05:28;9.80;;;7.60;;
4422;SDS011;2224;49.814;8.650;2022-08-18T04:07:54;7.20;;;6.60;;
4422;SDS011;2224;49.814;8.650;2022-08-18T04:10:21;8.00;;;7.23;;
4422;SDS011;2224;49.814;8.650;2022-08-18T04:12:47;8.00;;;7.30;;
4422;SDS011;2224;49.814;8.650;2022-08-18T04:15:12;7.67;;;6.97;;
4422;SDS011;2224;49.814;8.650;2022-08-18T04:17:37;8.50;;;6.77;;
4422;SDS011;2224;49.814;8.650;2022-08-18T04:20:03;7.83;;;6.87;;
4422;SDS011;2224;49.814;8.650;2022-08-18T04:22:29;7.87;;;7.10;;
4422;SDS011;2224;49.814;8.650;2022-08-18T04:24:57;7.27;;;6.60;;
4422;SDS011;2224;49.814;8.650;2022-08-18T04:27:25;8.20;;;7.47;;
4422;SDS011;2224;49.814;8.650;2022-08-18T04:29:51;7.63;;;6.93;;
4422;SDS011;2224;49.814;8.650;2022-08-18T04:32:17;7.60;;;7.00;;
4422;SDS011;2224;49.814;8.650;2022-08-18T04:34:43;7.57;;;6.87;;
4422;SDS011;2224;49.814;8.650;2022-08-18T04:37:09;7.67;;;6.97;;
4422;SDS011;2224;49.814;8.650;2022-08-18T04:39:34;8.00;;;7.30;;
4422;SDS011;2224;49.814;8.650;2022-08-18T04:42:01;7.80;;;7.10;;
4422;SDS011;2224;49.814;8.650;2022-08-18T04:44:28;8.13;;;7.43;;
4422;SDS011;2224;49.814;8.650;2022-08-18T04:46:53;8.17;;;7.20;;
4422;SDS011;2224;49.814;8.650;2022-08-18T04:49:23;8.83;;;8.03;;
4422;SDS011;2224;49.814;8.650;2022-08-18T04:51:50;7.70;;;7.10;;
4422;SDS011;2224;49.814;8.650;2022-08-18T04:54:35;8.47;;;7.30;;
4422;SDS011;2224;49.814;8.650;2022-08-18T04:57:09;7.80;;;7.10;;
4422;SDS011;2224;49.814;8.650;2022-08-18T04:59:36;7.37;;;6.67;;
4422;SDS011;2224;49.814;8.650;2022-08-18T05:02:02;7.40;;;6.80;;
4422;SDS011;2224;49.814;8.650;2022-08-18T05:04:32;9.03;;;7.03;;
4422;SDS011;2224;49.814;8.650;2022-08-18T05:07:01;8.37;;;7.67;;
4422;SDS011;2224;49.814;8.650;2022-08-18T05:09:30;9.43;;;6.90;;
4422;SDS011;2224;49.814;8.650;2022-08-18T05:11:55;8.30;;;7.53;;
4422;SDS011;2224;49.814;8.650;2022-08-18T05:14:21;8.30;;;7.60;;
4422;SDS011;2224;49.814;8.650;2022-08-18T05:16:46;8.60;;;7.70;;
4422;SDS011;2224;49.814;8.650;2022-08-18T05:19:13;7.90;;;7.30;;
4422;SDS011;2224;49.814;8.650;2022-08-18T05:21:39;8.00;;;7.30;;
4422;SDS011;2224;49.814;8.650;2022-08-18T05:24:06;9.00;;;8.30;;
4422;SDS011;2224;49.814;8.650;2022-08-18T05:26:32;7.70;;;7.00;;
4422;SDS011;2224;49.814;8.650;2022-08-18T05:28:57;7.80;;;7.20;;
4422;SDS011;2224;49.814;8.650;2022-08-18T05:31:23;8.73;;;8.03;;
4422;SDS011;2224;49.814;8.650;2022-08-18T05:33:50;8.17;;;7.37;;
4422;SDS011;2224;49.814;8.650;2022-08-18T05:38:53;8.73;;;7.93;;
4422;SDS011;2224;49.814;8.650;2022-08-18T05:41:29;9.87;;;8.00;;
4422;SDS011;2224;49.814;8.650;2022-08-18T05:43:58;11.23;;;7.97;;
4422;SDS011;2224;49.814;8.650;2022-08-18T05:46:25;8.47;;;7.77;;
4422;SDS011;2224;49.814;8.650;2022-08-18T05:48:58;8.30;;;7.50;;
4422;SDS011;2224;49.814;8.650;2022-08-18T05:51:26;8.67;;;7.90;;
4422;SDS011;2224;49.814;8.650;2022-08-18T05:53:55;8.80;;;7.90;;
4422;SDS011;2224;49.814;8.650;2022-08-18T05:56:39;8.80;;;7.93;;
4422;SDS011;2224;49.814;8.650;2022-08-18T05:59:23;9.30;;;8.40;;
4422;SDS011;2224;49.814;8.650;2022-08-18T06:01:52;8.70;;;8.00;;
4422;SDS011;2224;49.814;8.650;2022-08-18T06:06:55;10.00;;;8.80;;
4422;SDS011;2224;49.814;8.650;2022-08-18T06:09:30;9.03;;;8.23;;
4422;SDS011;2224;49.814;8.650;2022-08-18T06:12:18;8.70;;;7.83;;
4422;SDS011;2224;49.814;8.650;2022-08-18T06:15:10;9.57;;;8.40;;
4422;SDS011;2224;49.814;8.650;2022-08-18T06:23:28;8.80;;;8.00;;
4422;SDS011;2224;49.814;8.650;2022-08-18T06:26:00;13.33;;;7.90;;
4422;SDS011;2224;49.814;8.650;2022-08-18T06:28:41;8.80;;;7.90;;
4422;SDS011;2224;49.814;8.650;2022-08-18T06:37:17;8.20;;;7.23;;
4422;SDS011;2224;49.814;8.650;2022-08-18T06:39:45;9.63;;;8.70;;
4422;SDS011;2224;49.814;8.650;2022-08-18T06:42:15;9.50;;;8.60;;
4422;SDS011;2224;49.814;8.650;2022-08-18T06:44:46;10.13;;;8.80;;
4422;SDS011;2224;49.814;8.650;2022-08-18T06:47:33;10.73;;;8.87;;
4422;SDS011;2224;49.814;8.650;2022-08-18T06:53:17;11.17;;;9.10;;
4422;SDS011;2224;49.814;8.650;2022-08-18T06:55:36;9.67;;;8.40;;
4422;SDS011;2224;49.814;8.650;2022-08-18T07:03:16;9.27;;;8.33;;
4422;SDS011;2224;49.814;8.650;2022-08-18T07:08:34;10.43;;;9.33;;
4422;SDS011;2224;49.814;8.650;2022-08-18T07:13:39;9.17;;;8.27;;
4422;SDS011;2224;49.814;8.650;2022-08-18T07:18:45;12.87;;;9.67;;
4422;SDS011;2224;49.814;8.650;2022-08-18T07:21:23;10.20;;;8.93;;
4422;SDS011;2224;49.814;8.650;2022-08-18T07:24:04;11.40;;;10.33;;
4422;SDS011;2224;49.814;8.650;2022-08-18T07:26:32;10.60;;;9.60;;
4422;SDS011;2224;49.814;8.650;2022-08-18T07:29:27;14.17;;;12.87;;
4422;SDS011;2224;49.814;8.650;2022-08-18T07:31:54;17.87;;;16.07;;
4422;SDS011;2224;49.814;8.650;2022-08-18T07:34:25;11.70;;;10.60;;
4422;SDS011;2224;49.814;8.650;2022-08-18T07:37:03;12.60;;;10.00;;
4422;SDS011;2224;49.814;8.650;2022-08-18T07:40:00;13.53;;;10.87;;
4422;SDS011;2224;49.814;8.650;2022-08-18T07:42:41;14.03;;;12.63;;
4422;SDS011;2224;49.814;8.650;2022-08-18T07:45:21;12.47;;;11.27;;
4422;SDS011;2224;49.814;8.650;2022-08-18T07:47:59;13.20;;;11.90;;
4422;SDS011;2224;49.814;8.650;2022-08-18T07:50:28;13.80;;;12.40;;
4422;SDS011;2224;49.814;8.650;2022-08-18T07:55:37;14.43;;;13.13;;
4422;SDS011;2224;49.814;8.650;2022-08-18T08:00:46;14.33;;;12.93;;
4422;SDS011;2224;49.814;8.650;2022-08-18T08:08:46;22.63;;;16.30;;
4422;SDS011;2224;49.814;8.650;2022-08-18T08:11:20;15.27;;;13.83;;
4422;SDS011;2224;49.814;8.650;2022-08-18T08:22:01;15.87;;;14.27;;
4422;SDS011;2224;49.814;8.650;2022-08-18T08:24:32;16.87;;;15.23;;
4422;SDS011;2224;49.814;8.650;2022-08-18T08:30:25;15.30;;;13.80;;
4422;SDS011;2224;49.814;8.650;2022-08-18T08:33:01;44.83;;;38.90;;
4422;SDS011;2224;49.814;8.650;2022-08-18T08:38:17;20.00;;;17.47;;
4422;SDS011;2224;49.814;8.650;2022-08-18T08:43:22;17.27;;;15.57;;
4422;SDS011;2224;49.814;8.650;2022-08-18T08:46:11;16.67;;;14.97;;
4422;SDS011;2224;49.814;8.650;2022-08-18T08:48:43;16.67;;;15.07;;
4422;SDS011;2224;49.814;8.650;2022-08-18T08:51:33;17.23;;;15.67;;
4422;SDS011;2224;49.814;8.650;2022-08-18T08:54:23;18.80;;;16.80;;
4422;SDS011;2224;49.814;8.650;2022-08-18T08:56:48;18.30;;;16.30;;
4422;SDS011;2224;49.814;8.650;2022-08-18T08:59:16;18.80;;;16.83;;
4422;SDS011;2224;49.814;8.650;2022-08-18T09:19:08;22.07;;;19.93;;
4422;SDS011;2224;49.814;8.650;2022-08-18T09:24:25;24.03;;;21.73;;
4422;SDS011;2224;49.814;8.650;2022-08-18T09:37:11;29.47;;;26.47;;
4422;SDS011;2224;49.814;8.650;2022-08-18T09:40:00;33.53;;;30.00;;
4422;SDS011;2224;49.814;8.650;2022-08-18T09:42:51;35.73;;;32.10;;
4422;SDS011;2224;49.814;8.650;2022-08-18T09:47:56;35.13;;;31.57;;
4422;SDS011;2224;49.814;8.650;2022-08-18T09:52:56;37.13;;;33.33;;
4422;SDS011;2224;49.814;8.650;2022-08-18T10:00:39;36.37;;;32.47;;
4422;SDS011;2224;49.814;8.650;2022-08-18T10:03:09;38.17;;;34.30;;
4422;SDS011;2224;49.814;8.650;2022-08-18T10:05:36;35.10;;;31.60;;
4422;SDS011;2224;49.814;8.650;2022-08-18T10:10:33;32.83;;;29.53;;
4422;SDS011;2224;49.814;8.650;2022-08-18T10:16:17;32.10;;;28.93;;
4422;SDS011;2224;49.814;8.650;2022-08-18T10:24:22;45.77;;;41.10;;
4422;SDS011;2224;49.814;8.650;2022-08-18T10:39:46;24.63;;;22.20;;
4422;SDS011;2224;49.814;8.650;2022-08-18T10:42:21;24.50;;;22.10;;
4422;SDS011;2224;49.814;8.650;2022-08-18T10:44:51;26.03;;;23.23;;
4422;SDS011;2224;49.814;8.650;2022-08-18T10:47:25;25.03;;;22.40;;
4422;SDS011;2224;49.814;8.650;2022-08-18T10:49:53;25.60;;;23.10;;
4422;SDS011;2224;49.814;8.650;2022-08-18T10:57:34;26.77;;;24.27;;
4422;SDS011;2224;49.814;8.650;2022-08-18T11:02:41;29.23;;;26.37;;
4422;SDS011;2224;49.814;8.650;2022-08-18T11:05:19;27.53;;;24.83;;
4422;SDS011;2224;49.814;8.650;2022-08-18T11:07:47;30.87;;;27.77;;
4422;SDS011;2224;49.814;8.650;2022-08-18T11:10:15;37.37;;;33.43;;
4422;SDS011;2224;49.814;8.650;2022-08-18T11:12:53;36.73;;;33.10;;
4422;SDS011;2224;49.814;8.650;2022-08-18T11:24:23;33.73;;;30.33;;
4422;SDS011;2224;49.814;8.650;2022-08-18T11:26:53;44.63;;;38.27;;
4422;SDS011;2224;49.814;8.650;2022-08-18T11:32:08;38.87;;;34.97;;
4422;SDS011;2224;49.814;8.650;2022-08-18T11:39:55;33.50;;;30.30;;
4422;SDS011;2224;49.814;8.650;2022-08-18T11:42:26;31.93;;;28.77;;
4422;SDS011;2224;49.814;8.650;2022-08-18T11:50:57;35.07;;;31.53;;
4422;SDS011;2224;49.814;8.650;2022-08-18T11:56:04;28.90;;;26.00;;
4422;SDS011;2224;49.814;8.650;2022-08-18T12:01:27;26.60;;;24.10;;
4422;SDS011;2224;49.814;8.650;2022-08-18T12:03:54;25.93;;;23.47;;
4422;SDS011;2224;49.814;8.650;2022-08-18T12:06:25;27.20;;;24.73;;
4422;SDS011;2224;49.814;8.650;2022-08-18T12:09:26;30.83;;;28.03;;
4422;SDS011;2224;49.814;8.650;2022-08-18T12:14:32;29.57;;;26.77;;
4422;SDS011;2224;49.814;8.650;2022-08-18T12:17:00;27.50;;;24.77;;
4422;SDS011;2224;49.814;8.650;2022-08-18T12:19:26;21.53;;;19.33;;
4422;SDS011;2224;49.814;8.650;2022-08-18T12:21:55;24.37;;;22.00;;
4422;SDS011;2224;49.814;8.650;2022-08-18T12:24:24;23.33;;;21.00;;
4422;SDS011;2224;49.814;8.650;2022-08-18T12:26:51;22.27;;;20.00;;
4422;SDS011;2224;49.814;8.650;2022-08-18T12:29:17;22.90;;;20.60;;
4422;SDS011;2224;49.814;8.650;2022-08-18T12:31:44;20.07;;;18.03;;
4422;SDS011;2224;49.814;8.650;2022-08-18T12:34:10;26.30;;;23.83;;
4422;SDS011;2224;49.814;8.650;2022-08-18T12:36:35;25.70;;;23.27;;
4422;SDS011;2224;49.814;8.650;2022-08-18T12:39:01;23.30;;;21.07;;
4422;SDS011;2224;49.814;8.650;2022-08-18T12:41:27;24.67;;;22.47;;
4422;SDS011;2224;49.814;8.650;2022-08-18T12:43:52;24.53;;;22.23;;
4422;SDS011;2224;49.814;8.650;2022-08-18T12:46:18;26.83;;;24.40;;
4422;SDS011;2224;49.814;8.650;2022-08-18T12:48:44;21.53;;;19.53;;
4422;SDS011;2224;49.814;8.650;2022-08-18T12:51:09;23.60;;;21.50;;
4422;SDS011;2224;49.814;8.650;2022-08-18T12:53:36;20.10;;;18.10;;
4422;SDS011;2224;49.814;8.650;2022-08-18T12:56:02;22.80;;;20.60;;
4422;SDS011;2224;49.814;8.650;2022-08-18T12:58:28;24.20;;;21.67;;
4422;SDS011;2224;49.814;8.650;2022-08-18T13:00:53;17.90;;;16.30;;
4422;SDS011;2224;49.814;8.650;2022-08-18T13:03:19;18.77;;;17.17;;
4422;SDS011;2224;49.814;8.650;2022-08-18T13:05:45;18.40;;;16.60;;
4422;SDS011;2224;49.814;8.650;2022-08-18T13:08:18;23.50;;;19.17;;
4422;SDS011;2224;49.814;8.650;2022-08-18T13:10:45;19.50;;;17.43;;
4422;SDS011;2224;49.814;8.650;2022-08-18T13:13:12;23.77;;;21.57;;
4422;SDS011;2224;49.814;8.650;2022-08-18T13:15:39;19.00;;;17.33;;
4422;SDS011;2224;49.814;8.650;2022-08-18T13:18:04;18.03;;;16.50;;
4422;SDS011;2224;49.814;8.650;2022-08-18T13:20:30;19.70;;;18.00;;
4422;SDS011;2224;49.814;8.650;2022-08-18T13:22:55;19.50;;;17.83;;
4422;SDS011;2224;49.814;8.650;2022-08-18T13:25:21;17.70;;;16.00;;
4422;SDS011;2224;49.814;8.650;2022-08-18T13:27:46;18.67;;;16.87;;
4422;SDS011;2224;49.814;8.650;2022-08-18T13:30:13;16.80;;;15.30;;
4422;SDS011;2224;49.814;8.650;2022-08-18T13:32:39;16.30;;;14.83;;
4422;SDS011;2224;49.814;8.650;2022-08-18T13:35:05;15.00;;;13.80;;
4422;SDS011;2224;49.814;8.650;2022-08-18T13:37:31;16.57;;;15.13;;
4422;SDS011;2224;49.814;8.650;2022-08-18T13:39:57;17.20;;;15.67;;
4422;SDS011;2224;49.814;8.650;2022-08-18T13:42:23;19.10;;;17.27;;
4422;SDS011;2224;49.814;8.650;2022-08-18T13:44:49;14.33;;;13.10;;
4422;SDS011;2224;49.814;8.650;2022-08-18T13:47:15;15.77;;;14.47;;
4422;SDS011;2224;49.814;8.650;2022-08-18T13:49:40;16.00;;;14.70;;
4422;SDS011;2224;49.814;8.650;2022-08-18T13:52:05;14.43;;;13.13;;
4422;SDS011;2224;49.814;8.650;2022-08-18T13:54:32;17.40;;;16.00;;
4422;SDS011;2224;49.814;8.650;2022-08-18T13:56:58;15.93;;;14.53;;
4422;SDS011;2224;49.814;8.650;2022-08-18T13:59:24;14.17;;;12.87;;
4422;SDS011;2224;49.814;8.650;2022-08-18T14:01:55;14.33;;;13.13;;
4422;SDS011;2224;49.814;8.650;2022-08-18T14:04:21;13.37;;;12.17;;
4422;SDS011;2224;49.814;8.650;2022-08-18T14:06:48;16.60;;;15.17;;
4422;SDS011;2224;49.814;8.650;2022-08-18T14:09:14;19.20;;;17.27;;
4422;SDS011;2224;49.814;8.650;2022-08-18T14:11:39;18.30;;;16.70;;
4422;SDS011;2224;49.814;8.650;2022-08-18T14:14:05;16.10;;;14.80;;
4422;SDS011;2224;49.814;8.650;2022-08-18T14:16:31;13.73;;;12.47;;
4422;SDS011;2224;49.814;8.650;2022-08-18T14:18:57;13.00;;;11.90;;
4422;SDS011;2224;49.814;8.650;2022-08-18T14:21:42;16.00;;;14.70;;
4422;SDS011;2224;49.814;8.650;2022-08-18T14:24:28;15.00;;;13.60;;
4422;SDS011;2224;49.814;8.650;2022-08-18T14:27:13;16.43;;;14.93;;
4422;SDS011;2224;49.814;8.650;2022-08-18T14:29:38;14.43;;;13.13;;
4422;SDS011;2224;49.814;8.650;2022-08-18T14:32:06;14.70;;;13.40;;
4422;SDS011;2224;49.814;8.650;2022-08-18T14:34:31;11.17;;;10.30;;
4422;SDS011;2224;49.814;8.650;2022-08-18T14:36:57;12.00;;;10.90;;
4422;SDS011;2224;49.814;8.650;2022-08-18T14:39:22;14.37;;;13.13;;
4422;SDS011;2224;49.814;8.650;2022-08-18T14:41:47;14.90;;;13.60;;
4422;SDS011;2224;49.814;8.650;2022-08-18T14:44:12;14.10;;;12.77;;
4422;SDS011;2224;49.814;8.650;2022-08-18T14:46:39;12.57;;;11.60;;
4422;SDS011;2224;49.814;8.650;2022-08-18T14:49:06;12.33;;;11.13;;
4422;SDS011;2224;49.814;8.650;2022-08-18T14:51:31;12.87;;;11.87;;
4422;SDS011;2224;49.814;8.650;2022-08-18T14:53:57;14.83;;;13.37;;
4422;SDS011;2224;49.814;8.650;2022-08-18T14:56:22;15.57;;;14.20;;
4422;SDS011;2224;49.814;8.650;2022-08-18T14:58:48;13.53;;;12.40;;
4422;SDS011;2224;49.814;8.650;2022-08-18T15:01:13;13.43;;;12.33;;
4422;SDS011;2224;49.814;8.650;2022-08-18T15:03:39;12.77;;;11.77;;
4422;SDS011;2224;49.814;8.650;2022-08-18T15:06:05;12.67;;;11.67;;
4422;SDS011;2224;49.814;8.650;2022-08-18T15:08:32;14.90;;;13.40;;
4422;SDS011;2224;49.814;8.650;2022-08-18T15:10:59;14.13;;;12.83;;
4422;SDS011;2224;49.814;8.650;2022-08-18T15:13:25;14.00;;;12.60;;
4422;SDS011;2224;49.814;8.650;2022-08-18T15:15:50;13.23;;;12.03;;
4422;SDS011;2224;49.814;8.650;2022-08-18T15:18:16;13.00;;;11.77;;
4422;SDS011;2224;49.814;8.650;2022-08-18T15:20:43;11.50;;;10.50;;
4422;SDS011;2224;49.814;8.650;2022-08-18T15:23:27;12.93;;;11.63;;
4422;SDS011;2224;49.814;8.650;2022-08-18T15:26:11;12.90;;;11.90;;
4422;SDS011;2224;49.814;8.650;2022-08-18T15:28:36;12.33;;;11.23;;
4422;SDS011;2224;49.814;8.650;2022-08-18T15:31:03;12.40;;;11.30;;
4422;SDS011;2224;49.814;8.650;2022-08-18T15:33:29;11.93;;;10.93;;
4422;SDS011;2224;49.814;8.650;2022-08-18T15:35:55;11.93;;;10.83;;
4422;SDS011;2224;49.814;8.650;2022-08-18T15:38:21;11.87;;;10.97;;
4422;SDS011;2224;49.814;8.650;2022-08-18T15:40:57;11.57;;;10.53;;
4422;SDS011;2224;49.814;8.650;2022-08-18T15:43:25;11.40;;;10.30;;
4422;SDS011;2224;49.814;8.650;2022-08-18T15:45:51;11.93;;;11.03;;
4422;SDS011;2224;49.814;8.650;2022-08-18T15:48:18;11.90;;;10.70;;
4422;SDS011;2224;49.814;8.650;2022-08-18T15:50:45;11.40;;;10.50;;
4422;SDS011;2224;49.814;8.650;2022-08-18T15:53:12;11.07;;;10.17;;
4422;SDS011;2224;49.814;8.650;2022-08-18T15:55:42;11.97;;;10.97;;
4422;SDS011;2224;49.814;8.650;2022-08-18T15:58:08;11.53;;;10.63;;
4422;SDS011;2224;49.814;8.650;2022-08-18T16:00:34;11.57;;;10.60;;
4422;SDS011;2224;49.814;8.650;2022-08-18T16:03:02;10.63;;;9.67;;
4422;SDS011;2224;49.814;8.650;2022-08-18T16:05:33;9.90;;;9.10;;
4422;SDS011;2224;49.814;8.650;2022-08-18T16:08:01;10.80;;;9.87;;
4422;SDS011;2224;49.814;8.650;2022-08-18T16:10:29;11.33;;;10.43;;
4422;SDS011;2224;49.814;8.650;2022-08-18T16:12:56;10.87;;;10.03;;
4422;SDS011;2224;49.814;8.650;2022-08-18T16:15:22;11.03;;;10.03;;
4422;SDS011;2224;49.814;8.650;2022-08-18T16:17:49;10.80;;;10.00;;
4422;SDS011;2224;49.814;8.650;2022-08-18T16:20:15;11.40;;;10.27;;
4422;SDS011;2224;49.814;8.650;2022-08-18T16:22:42;10.07;;;9.17;;
4422;SDS011;2224;49.814;8.650;2022-08-18T16:25:08;10.57;;;9.67;;
4422;SDS011;2224;49.814;8.650;2022-08-18T16:27:34;11.00;;;9.90;;
4422;SDS011;2224;49.814;8.650;2022-08-18T16:30:00;10.63;;;9.73;;
4422;SDS011;2224;49.814;8.650;2022-08-18T16:32:26;11.00;;;10.10;;
4422;SDS011;2224;49.814;8.650;2022-08-18T16:34:52;10.50;;;9.60;;
4422;SDS011;2224;49.814;8.650;2022-08-18T16:37:17;10.90;;;9.97;;
4422;SDS011;2224;49.814;8.650;2022-08-18T16:39:43;10.53;;;9.63;;
4422;SDS011;2224;49.814;8.650;2022-08-18T16:42:08;11.60;;;10.57;;
4422;SDS011;2224;49.814;8.650;2022-08-18T16:44:34;11.00;;;10.10;;
4422;SDS011;2224;49.814;8.650;2022-08-18T16:47:02;12.07;;;10.97;;
4422;SDS011;2224;49.814;8.650;2022-08-18T16:49:28;10.77;;;9.97;;
4422;SDS011;2224;49.814;8.650;2022-08-18T16:51:53;12.70;;;11.80;;
4422;SDS011;2224;49.814;8.650;2022-08-18T16:54:19;11.57;;;10.50;;
4422;SDS011;2224;49.814;8.650;2022-08-18T16:56:44;16.23;;;14.67;;
4422;SDS011;2224;49.814;8.650;2022-08-18T16:59:09;15.83;;;14.43;;
4422;SDS011;2224;49.814;8.650;2022-08-18T17:01:53;17.50;;;15.43;;
4422;SDS011;2224;49.814;8.650;2022-08-18T17:04:37;17.40;;;15.70;;
4422;SDS011;2224;49.814;8.650;2022-08-18T17:07:04;14.60;;;13.30;;
4422;SDS011;2224;49.814;8.650;2022-08-18T17:09:30;17.13;;;15.07;;
4422;SDS011;2224;49.814;8.650;2022-08-18T17:11:57;17.43;;;15.37;;
4422;SDS011;2224;49.814;8.650;2022-08-18T17:14:24;17.73;;;15.93;;
4422;SDS011;2224;49.814;8.650;2022-08-18T17:16:51;16.23;;;14.67;;
4422;SDS011;2224;49.814;8.650;2022-08-18T17:19:18;16.80;;;15.40;;
4422;SDS011;2224;49.814;8.650;2022-08-18T17:21:44;16.33;;;14.83;;
4422;SDS011;2224;49.814;8.650;2022-08-18T17:24:09;16.90;;;15.50;;
4422;SDS011;2224;49.814;8.650;2022-08-18T17:29:35;17.43;;;15.90;;
4422;SDS011;2224;49.814;8.650;2022-08-18T17:32:07;16.10;;;14.60;;
4422;SDS011;2224;49.814;8.650;2022-08-18T17:34:47;16.07;;;14.60;;
4422;SDS011;2224;49.814;8.650;2022-08-18T17:37:16;16.57;;;15.07;;
4422;SDS011;2224;49.814;8.650;2022-08-18T17:39:44;18.30;;;16.60;;
4422;SDS011;2224;49.814;8.650;2022-08-18T17:42:13;17.87;;;15.97;;
4422;SDS011;2224;49.814;8.650;2022-08-18T17:44:51;18.33;;;16.50;;
4422;SDS011;2224;49.814;8.650;2022-08-18T17:47:21;17.20;;;15.60;;
4422;SDS011;2224;49.814;8.650;2022-08-18T17:49:50;17.80;;;16.07;;
4422;SDS011;2224;49.814;8.650;2022-08-18T17:52:40;17.83;;;16.13;;
4422;SDS011;2224;49.814;8.650;2022-08-18T17:55:11;18.60;;;16.90;;
4422;SDS011;2224;49.814;8.650;2022-08-18T17:57:48;16.77;;;15.27;;
4422;SDS011;2224;49.814;8.650;2022-08-18T18:00:18;19.90;;;17.97;;